Gizan, Saudi Arabia
Current Conditions -  °F | °C
As of 10:00 PM on Sunday 23 Nov 2014 (Local Time) from OEGN Reporting Station
Few Clouds Few Clouds  
Wind Chill: 84°   Ceiling: Unl
Heat Index: 92°   Visibility: 6mi
Dew Point: 75°   Wind: 0mph
Humidity: 74%   Direction: NA
Pressure: 29.85"   Gusts: NA
Location:  16.89°N, 42.55°E
Report Text: OEGN 231900Z 00000KT 9999 FEW030 29/24 Q1011 NOSIG
Loading
Personal Weather Stations






























Interactive Weather Map New forecast layout! Learn more

10-Day Weather Forecast

Advertisements
Track Severe Weather on mobile